createdAt,value
2019-05-23T12:51:03.870Z,25.20
2019-05-23T12:53:34.014Z,25.50
2019-05-23T12:56:04.376Z,25.40
2019-05-23T12:58:35.339Z,25.30
2019-05-23T13:01:06.567Z,25.30
2019-05-23T13:03:36.973Z,25.30
2019-05-23T13:06:07.610Z,25.20
2019-05-23T13:08:37.370Z,25.10
2019-05-23T13:11:07.426Z,25.20
2019-05-23T13:13:37.232Z,25.20
2019-05-23T13:16:07.017Z,25.30
2019-05-23T13:18:36.829Z,25.30
2019-05-23T13:21:06.773Z,25.40
2019-05-23T13:23:36.834Z,25.50
2019-05-23T13:26:06.910Z,25.50
2019-05-23T13:28:36.850Z,25.50
2019-05-23T13:31:06.799Z,25.50
2019-05-23T13:33:36.554Z,25.40
2019-05-23T13:36:07.292Z,25.40
2019-05-23T13:38:37.140Z,25.30
2019-05-23T13:41:07.194Z,25.30
2019-05-23T13:43:37.043Z,25.40
2019-05-23T13:46:06.954Z,25.30
2019-05-23T13:48:36.839Z,25.20
2019-05-23T13:51:06.890Z,25.20
2019-05-23T13:53:36.917Z,25.10
2019-05-23T13:56:06.971Z,25.20
2019-05-23T13:58:37.251Z,25.20
2019-05-23T14:01:09.813Z,25.20
2019-05-23T14:03:40.195Z,25.20
2019-05-23T14:06:11.160Z,25.10
2019-05-23T14:08:41.048Z,25.00
2019-05-23T14:11:10.979Z,25.00
2019-05-23T14:13:41.293Z,25.00
2019-05-23T14:16:11.321Z,24.90
2019-05-23T14:18:43.305Z,25.00
2019-05-23T14:21:13.151Z,24.90
2019-05-23T14:23:43.070Z,24.90
2019-05-23T14:26:13.864Z,25.10
2019-05-23T14:28:43.958Z,25.20
2019-05-23T14:31:15.476Z,25.30
2019-05-23T14:34:02.528Z,25.30
2019-05-23T14:36:57.126Z,25.20
2019-05-23T14:39:32.337Z,25.00
2019-05-23T14:42:21.147Z,25.10
2019-05-23T14:44:51.165Z,25.10
2019-05-23T14:47:47.365Z,24.90
2019-05-23T14:50:34.776Z,24.90
2019-05-23T14:53:07.475Z,25.00
2019-05-23T14:55:37.395Z,25.00
2019-05-23T14:58:07.289Z,25.20
2019-05-23T15:00:37.451Z,25.30
2019-05-23T15:03:07.458Z,25.30
2019-05-23T15:05:37.979Z,25.30
2019-05-23T15:08:07.883Z,25.20
2019-05-23T15:10:37.748Z,25.20
2019-05-23T15:13:07.765Z,25.20
2019-05-23T15:15:37.611Z,25.20
2019-05-23T15:18:07.817Z,25.00
2019-05-23T15:20:37.812Z,24.90
2019-05-23T15:23:07.953Z,24.80
2019-05-23T15:25:37.879Z,24.60
2019-05-23T15:28:08.018Z,24.40
2019-05-23T15:30:37.887Z,24.40
2019-05-23T15:33:07.847Z,24.40
2019-05-23T15:35:37.759Z,24.50
2019-05-23T15:38:07.743Z,24.30
2019-05-23T15:40:37.717Z,24.20
2019-05-23T15:43:09.863Z,24.20
2019-05-23T15:45:39.415Z,24.10
2019-05-23T15:48:09.313Z,24.20
2019-05-23T15:50:44.780Z,24.10
2019-05-23T15:53:33.585Z,24.10
2019-05-23T15:56:40.601Z,24.00
2019-05-23T15:59:29.948Z,23.90
2019-05-23T16:02:21.576Z,23.80
2019-05-23T16:04:53.947Z,23.80
2019-05-23T16:07:25.129Z,23.80
2019-05-23T16:09:54.991Z,23.70
2019-05-23T16:12:25.138Z,23.60
2019-05-23T16:14:55.140Z,23.50
2019-05-23T16:17:24.960Z,23.50
2019-05-23T16:19:54.855Z,23.50
2019-05-23T16:22:24.889Z,23.50
2019-05-23T16:24:54.817Z,23.50
2019-05-23T16:27:24.721Z,23.40
2019-05-23T16:29:54.837Z,23.40
2019-05-23T16:32:24.906Z,23.30
2019-05-23T16:34:54.769Z,23.40
2019-05-23T16:37:24.679Z,23.40
2019-05-23T16:39:54.502Z,23.30
2019-05-23T16:42:24.457Z,23.30
2019-05-23T16:44:54.441Z,23.30
2019-05-23T16:47:24.660Z,23.20
2019-05-23T16:49:54.820Z,23.20
2019-05-23T16:52:24.808Z,23.10
2019-05-23T16:54:56.517Z,23.10
2019-05-23T16:57:54.503Z,23.00
2019-05-23T17:00:42.523Z,23.00
2019-05-23T17:03:19.738Z,23.00
2019-05-23T17:06:23.452Z,23.00
2019-05-23T17:09:21.142Z,22.90
2019-05-23T17:11:59.679Z,22.80
2019-05-23T17:14:41.670Z,22.90
2019-05-23T17:18:01.558Z,22.80
2019-05-23T17:20:42.695Z,22.70
2019-05-23T17:23:32.292Z,22.70
2019-05-23T17:26:23.237Z,22.50
2019-05-23T17:28:54.347Z,22.60
2019-05-23T17:31:29.483Z,22.50
2019-05-23T17:33:59.358Z,22.60
2019-05-23T17:36:29.212Z,22.50
2019-05-23T17:38:59.249Z,22.40
2019-05-23T17:41:29.160Z,22.40
2019-05-23T17:43:59.042Z,22.40
2019-05-23T17:46:28.959Z,22.50
2019-05-23T17:48:58.917Z,22.50
2019-05-23T17:51:28.720Z,22.50
2019-05-23T17:53:58.512Z,22.40
2019-05-23T17:56:28.354Z,22.30
2019-05-23T17:58:58.126Z,22.30
2019-05-23T18:01:29.784Z,22.20
2019-05-23T18:04:00.107Z,22.10
2019-05-23T18:06:30.057Z,22.10
2019-05-23T18:09:00.012Z,22.10
2019-05-23T18:11:30.074Z,22.00
2019-05-23T18:14:00.035Z,22.00
2019-05-23T18:16:30.139Z,21.90
2019-05-23T18:19:00.189Z,21.80
2019-05-23T18:21:30.102Z,21.80
2019-05-23T18:24:01.027Z,21.70
2019-05-23T18:26:30.989Z,21.70
2019-05-23T18:29:00.947Z,21.60
2019-05-23T18:31:32.835Z,21.60
2019-05-23T18:34:04.099Z,21.60
2019-05-23T18:36:34.358Z,21.50
2019-05-23T18:39:07.136Z,21.40
2019-05-23T18:41:38.155Z,21.20
2019-05-23T18:44:09.436Z,21.20
2019-05-23T18:46:43.845Z,21.10
2019-05-23T18:49:15.680Z,21.10
2019-05-23T18:51:45.973Z,20.90
2019-05-23T18:54:15.969Z,21.00
2019-05-23T18:56:45.900Z,21.00
2019-05-23T18:59:16.015Z,21.10
2019-05-23T19:01:46.395Z,21.10
2019-05-23T19:04:16.415Z,21.00
2019-05-23T19:06:47.055Z,21.00
2019-05-23T19:09:17.659Z,20.90
2019-05-23T19:11:50.155Z,20.80
2019-05-23T19:14:20.704Z,20.80
2019-05-23T19:16:50.690Z,20.80
2019-05-23T19:19:21.434Z,20.80
2019-05-23T19:21:51.462Z,20.70
2019-05-23T19:24:21.427Z,20.70
2019-05-23T19:26:51.428Z,20.70
2019-05-23T19:29:21.203Z,20.70
2019-05-23T19:31:51.732Z,20.70
2019-05-23T19:34:21.557Z,20.80
2019-05-23T19:36:51.384Z,20.80
2019-05-23T19:39:22.357Z,20.80
2019-05-23T19:41:52.242Z,20.80
2019-05-23T19:44:22.041Z,20.80
2019-05-23T19:46:51.935Z,20.70
2019-05-23T19:49:21.945Z,20.70
2019-05-23T19:51:51.930Z,20.60
2019-05-23T19:54:22.068Z,20.70
2019-05-23T19:56:52.171Z,20.70
2019-05-23T19:59:21.970Z,20.60
2019-05-23T20:02:10.707Z,20.60
2019-05-23T20:04:44.079Z,20.60
2019-05-23T20:07:15.506Z,20.50
2019-05-23T20:09:45.976Z,20.50
2019-05-23T20:12:15.921Z,20.50
2019-05-23T20:14:45.693Z,20.50
2019-05-23T20:17:16.079Z,20.30
2019-05-23T20:19:50.158Z,20.40
2019-05-23T20:22:17.675Z,20.40
2019-05-23T20:24:47.564Z,20.40
2019-05-23T20:27:17.676Z,20.40
2019-05-23T20:29:47.518Z,20.20
2019-05-23T20:32:17.784Z,20.20
2019-05-23T20:34:47.689Z,20.10
2019-05-23T20:37:18.164Z,20.10
2019-05-23T20:39:48.066Z,20.10
2019-05-23T20:42:17.973Z,19.90
2019-05-23T20:44:47.848Z,19.90
2019-05-23T20:47:17.781Z,19.90
2019-05-23T20:49:47.710Z,19.80
2019-05-23T20:52:17.659Z,19.70
2019-05-23T20:54:47.609Z,19.50
2019-05-23T20:57:17.687Z,19.30
2019-05-23T20:59:47.682Z,19.20
2019-05-23T21:02:17.706Z,19.40
2019-05-23T21:04:47.552Z,19.40
2019-05-23T21:07:17.369Z,19.40
2019-05-23T21:09:47.304Z,19.40
2019-05-23T21:12:29.319Z,19.40
2019-05-23T21:14:48.841Z,19.50
2019-05-23T21:17:18.723Z,19.40
2019-05-23T21:19:48.472Z,19.40
2019-05-23T21:22:18.388Z,19.50
2019-05-23T21:24:48.233Z,19.40
2019-05-23T21:27:18.187Z,19.00
2019-05-23T21:29:48.220Z,18.80
2019-05-23T21:32:18.053Z,18.90
2019-05-23T21:34:47.911Z,19.10
2019-05-23T21:37:17.831Z,19.20
2019-05-23T21:39:47.630Z,19.20
2019-05-23T21:42:17.536Z,19.00
2019-05-23T21:44:47.378Z,18.80
2019-05-23T21:47:17.297Z,18.80
2019-05-23T21:49:47.212Z,18.90
2019-05-23T21:52:17.019Z,19.00
2019-05-23T21:54:46.875Z,19.10
2019-05-23T21:57:16.778Z,19.20
2019-05-23T21:59:46.579Z,19.40
2019-05-23T22:02:24.356Z,19.50
2019-05-23T22:05:09.736Z,19.60
2019-05-23T22:07:39.843Z,19.70
2019-05-23T22:10:10.396Z,19.80
2019-05-23T22:12:40.378Z,19.80
2019-05-23T22:15:10.525Z,19.90
2019-05-23T22:17:40.722Z,20.00
2019-05-23T22:20:10.911Z,20.00
2019-05-23T22:22:40.811Z,20.10
2019-05-23T22:25:13.992Z,20.00
2019-05-23T22:27:44.393Z,20.00
2019-05-23T22:30:15.587Z,19.90
2019-05-23T22:32:45.488Z,19.90
2019-05-23T22:35:18.521Z,19.90
2019-05-23T22:37:48.267Z,20.00
2019-05-23T22:40:18.103Z,20.00
2019-05-23T22:42:47.930Z,19.90
2019-05-23T22:45:20.757Z,19.90
2019-05-23T22:47:50.568Z,19.80
2019-05-23T22:50:20.369Z,19.80
2019-05-23T22:52:50.207Z,19.80
2019-05-23T22:55:20.034Z,19.80
2019-05-23T22:57:49.849Z,19.80
2019-05-23T23:00:26.179Z,19.80
2019-05-23T23:02:56.279Z,19.80
2019-05-23T23:05:26.076Z,19.80
2019-05-23T23:07:56.204Z,19.80
2019-05-23T23:10:26.219Z,19.80
2019-05-23T23:12:56.025Z,19.70
2019-05-23T23:15:27.571Z,19.80
2019-05-23T23:17:57.571Z,19.90
2019-05-23T23:20:27.434Z,19.90
2019-05-23T23:22:57.263Z,19.80
2019-05-23T23:25:27.355Z,19.80
2019-05-23T23:27:57.264Z,19.90
2019-05-23T23:30:30.314Z,19.90
2019-05-23T23:33:00.163Z,20.00
2019-05-23T23:35:30.003Z,19.90
2019-05-23T23:37:59.847Z,20.00
2019-05-23T23:40:29.958Z,19.90
2019-05-23T23:42:59.763Z,19.80
2019-05-23T23:45:47.010Z,19.70
2019-05-23T23:48:34.465Z,19.80
2019-05-23T23:51:21.682Z,19.80
2019-05-23T23:54:08.828Z,19.80
2019-05-23T23:56:55.927Z,19.80
2019-05-23T23:59:24.772Z,19.80
